Terminal Aerodrome Forecast
Issued by NWS

Home | Current Version | Previous Version | Text Only | Print | Product List | Glossary On
Versions: 1 2 3 4 5 6 7 8 9 10 11 12 13 14 15 16 17 18 19 20 21 22 23 24 25 26 27 28 29 30 31 32 33 34 35 36 37 38 39 40 41
000
FTUS45 KBOU 270535
TAFAPA
TAF
KAPA 270535Z 2706/2806 04008KT 2SM -RA BR BKN004 OVC008
      TEMPO 2706/2709 4SM -RA BR SCT004 OVC012
     FM271600 02010KT 4SM -SHRA BR SCT006 OVC012
      TEMPO 2716/2719 2SM -SHRA BR BKN006
     FM271900 04010KT P6SM SCT012 OVC025 PROB30 2719/2722 4SM -SHRA
      BKN012
     FM280000 04008KT P6SM SCT025 BKN040=

USA.gov is the U.S. government's official web portal to all federal, state and local government web resources and services.